sensor_id;sensor_type;location;lat;lon;timestamp;P1;durP1;ratioP1;P2;durP2;ratioP2
13855;SDS011;6998;53.608;9.958;2023-04-28T00:01:13;35.13;;;27.33;;
13855;SDS011;6998;53.608;9.958;2023-04-28T00:03:40;31.47;;;25.03;;
13855;SDS011;6998;53.608;9.958;2023-04-28T00:06:07;20.77;;;17.73;;
13855;SDS011;6998;53.608;9.958;2023-04-28T00:08:35;19.50;;;15.77;;
13855;SDS011;6998;53.608;9.958;2023-04-28T00:11:02;21.47;;;17.97;;
13855;SDS011;6998;53.608;9.958;2023-04-28T00:13:30;22.53;;;18.37;;
13855;SDS011;6998;53.608;9.958;2023-04-28T00:15:57;20.93;;;17.03;;
13855;SDS011;6998;53.608;9.958;2023-04-28T00:18:24;19.67;;;16.50;;
13855;SDS011;6998;53.608;9.958;2023-04-28T00:20:51;19.43;;;16.70;;
13855;SDS011;6998;53.608;9.958;2023-04-28T00:23:17;19.67;;;15.07;;
13855;SDS011;6998;53.608;9.958;2023-04-28T00:25:49;20.53;;;15.13;;
13855;SDS011;6998;53.608;9.958;2023-04-28T00:28:16;16.23;;;13.87;;
13855;SDS011;6998;53.608;9.958;2023-04-28T00:30:46;19.63;;;14.33;;
13855;SDS011;6998;53.608;9.958;2023-04-28T00:33:12;14.80;;;13.10;;
13855;SDS011;6998;53.608;9.958;2023-04-28T00:35:39;17.40;;;14.03;;
13855;SDS011;6998;53.608;9.958;2023-04-28T00:38:06;15.53;;;13.10;;
13855;SDS011;6998;53.608;9.958;2023-04-28T00:40:33;14.60;;;12.47;;
13855;SDS011;6998;53.608;9.958;2023-04-28T00:43:00;15.93;;;12.30;;
13855;SDS011;6998;53.608;9.958;2023-04-28T00:45:28;16.70;;;13.53;;
13855;SDS011;6998;53.608;9.958;2023-04-28T00:47:56;15.73;;;13.03;;
13855;SDS011;6998;53.608;9.958;2023-04-28T00:50:24;18.20;;;13.13;;
13855;SDS011;6998;53.608;9.958;2023-04-28T00:52:51;15.23;;;13.63;;
13855;SDS011;6998;53.608;9.958;2023-04-28T00:55:18;14.93;;;12.67;;
13855;SDS011;6998;53.608;9.958;2023-04-28T00:57:45;17.07;;;13.10;;
13855;SDS011;6998;53.608;9.958;2023-04-28T01:00:12;16.43;;;12.77;;
13855;SDS011;6998;53.608;9.958;2023-04-28T01:02:41;15.57;;;12.80;;
13855;SDS011;6998;53.608;9.958;2023-04-28T01:05:09;17.50;;;13.80;;
13855;SDS011;6998;53.608;9.958;2023-04-28T01:07:37;16.43;;;12.60;;
13855;SDS011;6998;53.608;9.958;2023-04-28T01:10:04;15.33;;;12.47;;
13855;SDS011;6998;53.608;9.958;2023-04-28T01:12:32;15.77;;;12.50;;
13855;SDS011;6998;53.608;9.958;2023-04-28T01:14:58;14.00;;;12.27;;
13855;SDS011;6998;53.608;9.958;2023-04-28T01:17:25;15.40;;;12.47;;
13855;SDS011;6998;53.608;9.958;2023-04-28T01:19:52;18.67;;;12.87;;
13855;SDS011;6998;53.608;9.958;2023-04-28T01:22:21;13.93;;;12.07;;
13855;SDS011;6998;53.608;9.958;2023-04-28T01:24:49;14.70;;;12.57;;
13855;SDS011;6998;53.608;9.958;2023-04-28T01:27:16;17.47;;;13.13;;
13855;SDS011;6998;53.608;9.958;2023-04-28T01:29:42;14.60;;;12.07;;
13855;SDS011;6998;53.608;9.958;2023-04-28T01:32:09;14.63;;;11.93;;
13855;SDS011;6998;53.608;9.958;2023-04-28T01:34:36;18.90;;;13.20;;
13855;SDS011;6998;53.608;9.958;2023-04-28T01:37:03;13.73;;;12.13;;
13855;SDS011;6998;53.608;9.958;2023-04-28T01:39:30;15.03;;;12.57;;
13855;SDS011;6998;53.608;9.958;2023-04-28T01:41:58;15.40;;;12.27;;
13855;SDS011;6998;53.608;9.958;2023-04-28T01:44:26;16.17;;;12.77;;
13855;SDS011;6998;53.608;9.958;2023-04-28T01:46:53;16.33;;;12.83;;
13855;SDS011;6998;53.608;9.958;2023-04-28T01:49:19;15.63;;;12.90;;
13855;SDS011;6998;53.608;9.958;2023-04-28T01:51:46;16.27;;;12.53;;
13855;SDS011;6998;53.608;9.958;2023-04-28T01:54:13;15.03;;;12.00;;
13855;SDS011;6998;53.608;9.958;2023-04-28T01:56:39;15.53;;;12.90;;
13855;SDS011;6998;53.608;9.958;2023-04-28T01:59:07;14.27;;;12.40;;
13855;SDS011;6998;53.608;9.958;2023-04-28T02:01:35;14.60;;;13.10;;
13855;SDS011;6998;53.608;9.958;2023-04-28T02:04:01;15.90;;;12.90;;
13855;SDS011;6998;53.608;9.958;2023-04-28T02:06:28;17.20;;;13.60;;
13855;SDS011;6998;53.608;9.958;2023-04-28T02:08:55;17.13;;;14.87;;
13855;SDS011;6998;53.608;9.958;2023-04-28T02:11:22;17.70;;;13.77;;
13855;SDS011;6998;53.608;9.958;2023-04-28T02:13:49;18.30;;;14.30;;
13855;SDS011;6998;53.608;9.958;2023-04-28T02:16:17;20.17;;;15.77;;
13855;SDS011;6998;53.608;9.958;2023-04-28T02:18:44;20.63;;;16.03;;
13855;SDS011;6998;53.608;9.958;2023-04-28T02:21:13;17.87;;;14.80;;
13855;SDS011;6998;53.608;9.958;2023-04-28T02:23:40;19.10;;;15.27;;
13855;SDS011;6998;53.608;9.958;2023-04-28T02:26:06;19.30;;;13.60;;
13855;SDS011;6998;53.608;9.958;2023-04-28T02:28:33;19.73;;;15.60;;
13855;SDS011;6998;53.608;9.958;2023-04-28T02:31:04;20.50;;;15.50;;
13855;SDS011;6998;53.608;9.958;2023-04-28T02:33:33;22.30;;;16.83;;
13855;SDS011;6998;53.608;9.958;2023-04-28T02:36:00;23.23;;;16.07;;
13855;SDS011;6998;53.608;9.958;2023-04-28T02:38:27;20.43;;;14.60;;
13855;SDS011;6998;53.608;9.958;2023-04-28T02:40:57;19.30;;;15.47;;
13855;SDS011;6998;53.608;9.958;2023-04-28T02:43:24;17.50;;;13.80;;
13855;SDS011;6998;53.608;9.958;2023-04-28T02:45:51;19.43;;;13.70;;
13855;SDS011;6998;53.608;9.958;2023-04-28T02:48:18;15.87;;;12.97;;
13855;SDS011;6998;53.608;9.958;2023-04-28T02:50:47;20.63;;;14.43;;
13855;SDS011;6998;53.608;9.958;2023-04-28T02:53:13;20.40;;;13.10;;
13855;SDS011;6998;53.608;9.958;2023-04-28T02:55:40;17.40;;;13.20;;
13855;SDS011;6998;53.608;9.958;2023-04-28T02:58:07;16.13;;;12.20;;
13855;SDS011;6998;53.608;9.958;2023-04-28T03:00:34;16.20;;;13.10;;
13855;SDS011;6998;53.608;9.958;2023-04-28T03:03:01;14.57;;;11.97;;
13855;SDS011;6998;53.608;9.958;2023-04-28T03:05:27;12.90;;;11.60;;
13855;SDS011;6998;53.608;9.958;2023-04-28T03:07:56;16.77;;;12.97;;
13855;SDS011;6998;53.608;9.958;2023-04-28T03:10:23;17.23;;;12.93;;
13855;SDS011;6998;53.608;9.958;2023-04-28T03:12:50;16.17;;;11.77;;
13855;SDS011;6998;53.608;9.958;2023-04-28T03:15:17;15.27;;;12.07;;
13855;SDS011;6998;53.608;9.958;2023-04-28T03:17:44;14.70;;;11.73;;
13855;SDS011;6998;53.608;9.958;2023-04-28T03:20:11;16.00;;;11.77;;
13855;SDS011;6998;53.608;9.958;2023-04-28T03:22:38;15.67;;;12.27;;
13855;SDS011;6998;53.608;9.958;2023-04-28T03:25:06;14.23;;;11.77;;
13855;SDS011;6998;53.608;9.958;2023-04-28T03:27:33;14.20;;;11.10;;
13855;SDS011;6998;53.608;9.958;2023-04-28T03:30:00;16.07;;;12.00;;
13855;SDS011;6998;53.608;9.958;2023-04-28T03:32:27;13.10;;;11.33;;
13855;SDS011;6998;53.608;9.958;2023-04-28T03:34:54;14.63;;;11.90;;
13855;SDS011;6998;53.608;9.958;2023-04-28T03:37:21;14.50;;;12.00;;
13855;SDS011;6998;53.608;9.958;2023-04-28T03:39:48;16.70;;;12.00;;
13855;SDS011;6998;53.608;9.958;2023-04-28T03:42:16;16.57;;;11.67;;
13855;SDS011;6998;53.608;9.958;2023-04-28T03:44:43;12.80;;;10.87;;
13855;SDS011;6998;53.608;9.958;2023-04-28T03:47:10;12.73;;;10.87;;
13855;SDS011;6998;53.608;9.958;2023-04-28T03:49:37;14.27;;;11.30;;
13855;SDS011;6998;53.608;9.958;2023-04-28T03:52:04;13.00;;;11.13;;
13855;SDS011;6998;53.608;9.958;2023-04-28T03:54:30;13.93;;;11.40;;
13855;SDS011;6998;53.608;9.958;2023-04-28T03:56:57;14.80;;;10.60;;
13855;SDS011;6998;53.608;9.958;2023-04-28T03:59:26;17.17;;;11.27;;
13855;SDS011;6998;53.608;9.958;2023-04-28T04:01:52;14.67;;;10.67;;
13855;SDS011;6998;53.608;9.958;2023-04-28T04:04:19;12.73;;;11.13;;
13855;SDS011;6998;53.608;9.958;2023-04-28T04:06:46;14.13;;;11.10;;
13855;SDS011;6998;53.608;9.958;2023-04-28T04:09:13;15.23;;;11.33;;
13855;SDS011;6998;53.608;9.958;2023-04-28T04:11:40;13.30;;;10.73;;
13855;SDS011;6998;53.608;9.958;2023-04-28T04:14:07;14.10;;;11.73;;
13855;SDS011;6998;53.608;9.958;2023-04-28T04:16:35;16.53;;;11.57;;
13855;SDS011;6998;53.608;9.958;2023-04-28T04:19:02;13.93;;;11.70;;
13855;SDS011;6998;53.608;9.958;2023-04-28T04:21:29;12.40;;;10.73;;
13855;SDS011;6998;53.608;9.958;2023-04-28T04:23:57;14.83;;;11.30;;
13855;SDS011;6998;53.608;9.958;2023-04-28T04:26:23;14.80;;;11.70;;
13855;SDS011;6998;53.608;9.958;2023-04-28T04:28:50;15.37;;;11.77;;
13855;SDS011;6998;53.608;9.958;2023-04-28T04:31:17;14.27;;;12.33;;
13855;SDS011;6998;53.608;9.958;2023-04-28T04:33:46;16.60;;;13.07;;
13855;SDS011;6998;53.608;9.958;2023-04-28T04:36:13;17.30;;;12.70;;
13855;SDS011;6998;53.608;9.958;2023-04-28T04:38:39;18.40;;;14.13;;
13855;SDS011;6998;53.608;9.958;2023-04-28T04:41:06;19.33;;;15.13;;
13855;SDS011;6998;53.608;9.958;2023-04-28T04:43:33;19.33;;;14.73;;
13855;SDS011;6998;53.608;9.958;2023-04-28T04:46:00;19.67;;;15.23;;
13855;SDS011;6998;53.608;9.958;2023-04-28T04:48:28;20.73;;;16.13;;
13855;SDS011;6998;53.608;9.958;2023-04-28T04:50:56;19.73;;;15.53;;
13855;SDS011;6998;53.608;9.958;2023-04-28T04:53:23;21.17;;;15.93;;
13855;SDS011;6998;53.608;9.958;2023-04-28T04:55:50;19.40;;;14.97;;
13855;SDS011;6998;53.608;9.958;2023-04-28T04:58:17;18.53;;;12.70;;
13855;SDS011;6998;53.608;9.958;2023-04-28T05:00:44;16.47;;;12.07;;
13855;SDS011;6998;53.608;9.958;2023-04-28T05:03:10;15.37;;;10.83;;
13855;SDS011;6998;53.608;9.958;2023-04-28T05:05:37;13.30;;;10.70;;
13855;SDS011;6998;53.608;9.958;2023-04-28T05:08:06;14.90;;;11.63;;
13855;SDS011;6998;53.608;9.958;2023-04-28T05:10:33;13.63;;;10.90;;
13855;SDS011;6998;53.608;9.958;2023-04-28T05:12:59;13.13;;;10.53;;
13855;SDS011;6998;53.608;9.958;2023-04-28T05:15:26;14.30;;;9.70;;
13855;SDS011;6998;53.608;9.958;2023-04-28T05:17:55;11.20;;;9.27;;
13855;SDS011;6998;53.608;9.958;2023-04-28T05:20:22;10.07;;;8.83;;
13855;SDS011;6998;53.608;9.958;2023-04-28T05:22:50;11.53;;;9.13;;
13855;SDS011;6998;53.608;9.958;2023-04-28T05:25:18;12.00;;;8.77;;
13855;SDS011;6998;53.608;9.958;2023-04-28T05:27:45;9.97;;;8.23;;
13855;SDS011;6998;53.608;9.958;2023-04-28T05:30:12;9.93;;;7.23;;
13855;SDS011;6998;53.608;9.958;2023-04-28T05:32:39;9.70;;;8.20;;
13855;SDS011;6998;53.608;9.958;2023-04-28T05:35:06;13.50;;;7.87;;
13855;SDS011;6998;53.608;9.958;2023-04-28T05:37:34;9.67;;;7.33;;
13855;SDS011;6998;53.608;9.958;2023-04-28T05:40:01;8.97;;;7.07;;
13855;SDS011;6998;53.608;9.958;2023-04-28T05:42:30;9.43;;;7.03;;
13855;SDS011;6998;53.608;9.958;2023-04-28T05:44:57;9.57;;;6.93;;
13855;SDS011;6998;53.608;9.958;2023-04-28T05:47:24;9.63;;;7.00;;
13855;SDS011;6998;53.608;9.958;2023-04-28T05:49:51;9.33;;;6.77;;
13855;SDS011;6998;53.608;9.958;2023-04-28T05:52:18;11.00;;;6.80;;
13855;SDS011;6998;53.608;9.958;2023-04-28T05:54:44;11.57;;;7.10;;
13855;SDS011;6998;53.608;9.958;2023-04-28T05:57:11;10.60;;;6.40;;
13855;SDS011;6998;53.608;9.958;2023-04-28T05:59:39;7.80;;;6.27;;
13855;SDS011;6998;53.608;9.958;2023-04-28T06:02:06;9.13;;;6.50;;
13855;SDS011;6998;53.608;9.958;2023-04-28T06:04:33;8.03;;;5.70;;
13855;SDS011;6998;53.608;9.958;2023-04-28T06:07:00;7.17;;;5.70;;
13855;SDS011;6998;53.608;9.958;2023-04-28T06:09:27;9.77;;;5.60;;
13855;SDS011;6998;53.608;9.958;2023-04-28T06:11:54;8.00;;;5.00;;
13855;SDS011;6998;53.608;9.958;2023-04-28T06:14:21;6.73;;;5.30;;
13855;SDS011;6998;53.608;9.958;2023-04-28T06:16:49;5.73;;;5.20;;
13855;SDS011;6998;53.608;9.958;2023-04-28T06:19:16;8.37;;;5.23;;
13855;SDS011;6998;53.608;9.958;2023-04-28T06:21:43;7.53;;;5.00;;
13855;SDS011;6998;53.608;9.958;2023-04-28T06:24:10;6.17;;;4.70;;
13855;SDS011;6998;53.608;9.958;2023-04-28T06:26:37;8.77;;;5.20;;
13855;SDS011;6998;53.608;9.958;2023-04-28T06:29:04;9.57;;;5.00;;
13855;SDS011;6998;53.608;9.958;2023-04-28T06:31:31;8.17;;;4.70;;
13855;SDS011;6998;53.608;9.958;2023-04-28T06:33:59;6.83;;;4.50;;
13855;SDS011;6998;53.608;9.958;2023-04-28T06:36:26;4.67;;;4.00;;
13855;SDS011;6998;53.608;9.958;2023-04-28T06:38:52;7.43;;;4.30;;
13855;SDS011;6998;53.608;9.958;2023-04-28T06:41:19;7.67;;;4.30;;
13855;SDS011;6998;53.608;9.958;2023-04-28T06:43:46;6.23;;;3.93;;
13855;SDS011;6998;53.608;9.958;2023-04-28T06:46:14;5.47;;;3.63;;
13855;SDS011;6998;53.608;9.958;2023-04-28T06:48:41;5.73;;;3.40;;
13855;SDS011;6998;53.608;9.958;2023-04-28T06:51:09;5.83;;;4.00;;
13855;SDS011;6998;53.608;9.958;2023-04-28T06:53:36;6.60;;;3.53;;
13855;SDS011;6998;53.608;9.958;2023-04-28T06:56:04;5.47;;;3.73;;
13855;SDS011;6998;53.608;9.958;2023-04-28T06:58:31;5.53;;;3.67;;
13855;SDS011;6998;53.608;9.958;2023-04-28T07:00:58;6.57;;;3.70;;
13855;SDS011;6998;53.608;9.958;2023-04-28T07:03:25;5.73;;;3.30;;
13855;SDS011;6998;53.608;9.958;2023-04-28T07:05:52;6.90;;;3.97;;
13855;SDS011;6998;53.608;9.958;2023-04-28T07:08:20;4.03;;;3.47;;
13855;SDS011;6998;53.608;9.958;2023-04-28T07:10:47;7.00;;;3.70;;
13855;SDS011;6998;53.608;9.958;2023-04-28T07:13:14;4.80;;;3.58;;
13855;SDS011;6998;53.608;9.958;2023-04-28T07:15:40;4.75;;;3.60;;
13855;SDS011;6998;53.608;9.958;2023-04-28T07:18:07;5.20;;;3.30;;
13855;SDS011;6998;53.608;9.958;2023-04-28T07:20:34;6.18;;;3.30;;
13855;SDS011;6998;53.608;9.958;2023-04-28T07:23:01;5.20;;;3.20;;
13855;SDS011;6998;53.608;9.958;2023-04-28T07:25:29;8.80;;;3.80;;
13855;SDS011;6998;53.608;9.958;2023-04-28T07:27:57;6.32;;;3.63;;
13855;SDS011;6998;53.608;9.958;2023-04-28T07:30:23;5.22;;;3.22;;
13855;SDS011;6998;53.608;9.958;2023-04-28T07:32:50;5.65;;;3.50;;
13855;SDS011;6998;53.608;9.958;2023-04-28T07:35:17;6.18;;;3.15;;
13855;SDS011;6998;53.608;9.958;2023-04-28T07:37:44;4.78;;;3.45;;
13855;SDS011;6998;53.608;9.958;2023-04-28T07:40:10;8.02;;;3.22;;
13855;SDS011;6998;53.608;9.958;2023-04-28T07:42:39;9.07;;;3.40;;
13855;SDS011;6998;53.608;9.958;2023-04-28T07:45:06;6.22;;;3.45;;
13855;SDS011;6998;53.608;9.958;2023-04-28T07:47:34;5.63;;;3.33;;
13855;SDS011;6998;53.608;9.958;2023-04-28T07:50:02;5.07;;;3.33;;
13855;SDS011;6998;53.608;9.958;2023-04-28T07:52:41;4.70;;;3.10;;
13855;SDS011;6998;53.608;9.958;2023-04-28T07:55:08;3.95;;;3.17;;
13855;SDS011;6998;53.608;9.958;2023-04-28T07:57:35;4.50;;;3.20;;
13855;SDS011;6998;53.608;9.958;2023-04-28T08:00:05;5.03;;;2.75;;
13855;SDS011;6998;53.608;9.958;2023-04-28T08:02:33;5.32;;;2.90;;
13855;SDS011;6998;53.608;9.958;2023-04-28T08:05:00;6.57;;;3.25;;
13855;SDS011;6998;53.608;9.958;2023-04-28T08:07:27;5.28;;;2.97;;
13855;SDS011;6998;53.608;9.958;2023-04-28T08:09:55;7.53;;;3.13;;
13855;SDS011;6998;53.608;9.958;2023-04-28T08:12:21;4.70;;;2.60;;
13855;SDS011;6998;53.608;9.958;2023-04-28T08:14:48;5.90;;;3.88;;
13855;SDS011;6998;53.608;9.958;2023-04-28T08:17:17;9.27;;;3.92;;
13855;SDS011;6998;53.608;9.958;2023-04-28T08:19:45;5.95;;;3.17;;
13855;SDS011;6998;53.608;9.958;2023-04-28T08:22:12;5.93;;;3.35;;
13855;SDS011;6998;53.608;9.958;2023-04-28T08:24:39;4.65;;;3.38;;
13855;SDS011;6998;53.608;9.958;2023-04-28T08:27:09;4.80;;;3.33;;
13855;SDS011;6998;53.608;9.958;2023-04-28T08:29:37;4.10;;;3.10;;
13855;SDS011;6998;53.608;9.958;2023-04-28T08:32:04;5.93;;;3.45;;
13855;SDS011;6998;53.608;9.958;2023-04-28T08:34:40;5.55;;;3.17;;
13855;SDS011;6998;53.608;9.958;2023-04-28T08:37:08;4.05;;;2.85;;
13855;SDS011;6998;53.608;9.958;2023-04-28T08:39:35;5.38;;;3.38;;
13855;SDS011;6998;53.608;9.958;2023-04-28T08:42:02;4.28;;;3.10;;
13855;SDS011;6998;53.608;9.958;2023-04-28T08:44:31;6.07;;;3.50;;
13855;SDS011;6998;53.608;9.958;2023-04-28T08:47:02;6.90;;;3.50;;
13855;SDS011;6998;53.608;9.958;2023-04-28T08:49:35;6.20;;;3.20;;
13855;SDS011;6998;53.608;9.958;2023-04-28T08:52:02;4.82;;;3.30;;
13855;SDS011;6998;53.608;9.958;2023-04-28T08:54:38;9.82;;;7.03;;
13855;SDS011;6998;53.608;9.958;2023-04-28T08:57:09;10.93;;;7.05;;
13855;SDS011;6998;53.608;9.958;2023-04-28T08:59:37;7.10;;;4.45;;
13855;SDS011;6998;53.608;9.958;2023-04-28T09:02:06;7.80;;;3.20;;
13855;SDS011;6998;53.608;9.958;2023-04-28T09:04:35;6.07;;;3.40;;
13855;SDS011;6998;53.608;9.958;2023-04-28T09:07:01;3.90;;;3.15;;
13855;SDS011;6998;53.608;9.958;2023-04-28T09:09:29;4.53;;;3.05;;
13855;SDS011;6998;53.608;9.958;2023-04-28T09:11:56;4.53;;;3.90;;
13855;SDS011;6998;53.608;9.958;2023-04-28T09:14:25;4.90;;;3.55;;
13855;SDS011;6998;53.608;9.958;2023-04-28T09:16:56;8.43;;;4.45;;
13855;SDS011;6998;53.608;9.958;2023-04-28T09:19:24;8.20;;;3.65;;
13855;SDS011;6998;53.608;9.958;2023-04-28T09:22:01;11.32;;;3.90;;
13855;SDS011;6998;53.608;9.958;2023-04-28T09:24:31;6.30;;;4.35;;
13855;SDS011;6998;53.608;9.958;2023-04-28T09:26:59;5.55;;;3.78;;
13855;SDS011;6998;53.608;9.958;2023-04-28T09:29:28;7.38;;;3.72;;
13855;SDS011;6998;53.608;9.958;2023-04-28T09:32:11;7.82;;;4.10;;
13855;SDS011;6998;53.608;9.958;2023-04-28T09:34:43;6.20;;;4.18;;
13855;SDS011;6998;53.608;9.958;2023-04-28T09:37:17;5.10;;;3.40;;
13855;SDS011;6998;53.608;9.958;2023-04-28T09:39:45;6.28;;;3.60;;
13855;SDS011;6998;53.608;9.958;2023-04-28T09:42:29;7.60;;;3.78;;
13855;SDS011;6998;53.608;9.958;2023-04-28T09:44:58;7.32;;;3.72;;
13855;SDS011;6998;53.608;9.958;2023-04-28T09:47:26;5.78;;;4.25;;
13855;SDS011;6998;53.608;9.958;2023-04-28T09:49:54;6.40;;;3.90;;
13855;SDS011;6998;53.608;9.958;2023-04-28T09:52:22;6.53;;;3.97;;
13855;SDS011;6998;53.608;9.958;2023-04-28T09:54:50;5.88;;;4.05;;
13855;SDS011;6998;53.608;9.958;2023-04-28T09:57:17;6.75;;;4.10;;
13855;SDS011;6998;53.608;9.958;2023-04-28T09:59:46;5.28;;;4.03;;
13855;SDS011;6998;53.608;9.958;2023-04-28T10:02:14;4.70;;;3.88;;
13855;SDS011;6998;53.608;9.958;2023-04-28T10:04:41;6.75;;;4.10;;
13855;SDS011;6998;53.608;9.958;2023-04-28T10:07:10;5.90;;;4.20;;
13855;SDS011;6998;53.608;9.958;2023-04-28T10:09:39;6.40;;;4.20;;
13855;SDS011;6998;53.608;9.958;2023-04-28T10:12:08;5.63;;;4.18;;
13855;SDS011;6998;53.608;9.958;2023-04-28T10:14:35;6.38;;;3.97;;
13855;SDS011;6998;53.608;9.958;2023-04-28T10:17:02;4.97;;;4.22;;
13855;SDS011;6998;53.608;9.958;2023-04-28T10:19:30;6.82;;;4.20;;
13855;SDS011;6998;53.608;9.958;2023-04-28T10:22:01;8.63;;;4.35;;
13855;SDS011;6998;53.608;9.958;2023-04-28T10:24:48;6.15;;;3.90;;
13855;SDS011;6998;53.608;9.958;2023-04-28T10:27:31;7.15;;;4.05;;
13855;SDS011;6998;53.608;9.958;2023-04-28T10:30:11;8.23;;;4.22;;
13855;SDS011;6998;53.608;9.958;2023-04-28T10:32:38;6.63;;;4.30;;
13855;SDS011;6998;53.608;9.958;2023-04-28T10:38:07;9.63;;;4.70;;
13855;SDS011;6998;53.608;9.958;2023-04-28T10:40:37;6.90;;;4.30;;
13855;SDS011;6998;53.608;9.958;2023-04-28T10:43:05;6.07;;;4.10;;
13855;SDS011;6998;53.608;9.958;2023-04-28T10:51:23;5.65;;;4.22;;
13855;SDS011;6998;53.608;9.958;2023-04-28T10:54:06;7.10;;;4.25;;
13855;SDS011;6998;53.608;9.958;2023-04-28T10:59:47;9.48;;;4.63;;
13855;SDS011;6998;53.608;9.958;2023-04-28T11:02:36;7.40;;;4.40;;
13855;SDS011;6998;53.608;9.958;2023-04-28T11:05:17;5.72;;;4.30;;
13855;SDS011;6998;53.608;9.958;2023-04-28T11:17:04;6.65;;;4.60;;
13855;SDS011;6998;53.608;9.958;2023-04-28T11:19:33;7.03;;;4.13;;
13855;SDS011;6998;53.608;9.958;2023-04-28T11:22:04;9.30;;;4.65;;
13855;SDS011;6998;53.608;9.958;2023-04-28T11:24:35;9.77;;;4.50;;
13855;SDS011;6998;53.608;9.958;2023-04-28T11:27:02;8.02;;;4.38;;
13855;SDS011;6998;53.608;9.958;2023-04-28T11:29:30;8.18;;;4.03;;
13855;SDS011;6998;53.608;9.958;2023-04-28T11:31:57;7.78;;;4.47;;
13855;SDS011;6998;53.608;9.958;2023-04-28T11:34:26;9.27;;;5.00;;
13855;SDS011;6998;53.608;9.958;2023-04-28T11:36:53;7.95;;;4.72;;
13855;SDS011;6998;53.608;9.958;2023-04-28T11:39:24;8.25;;;4.47;;
13855;SDS011;6998;53.608;9.958;2023-04-28T11:41:52;9.55;;;4.32;;
13855;SDS011;6998;53.608;9.958;2023-04-28T11:44:19;8.07;;;4.22;;
13855;SDS011;6998;53.608;9.958;2023-04-28T11:46:47;6.65;;;4.45;;
13855;SDS011;6998;53.608;9.958;2023-04-28T11:49:18;8.77;;;4.45;;
13855;SDS011;6998;53.608;9.958;2023-04-28T11:51:47;6.57;;;4.50;;
13855;SDS011;6998;53.608;9.958;2023-04-28T11:54:18;5.05;;;4.28;;
13855;SDS011;6998;53.608;9.958;2023-04-28T11:56:46;5.57;;;4.35;;
13855;SDS011;6998;53.608;9.958;2023-04-28T11:59:13;6.63;;;4.32;;
13855;SDS011;6998;53.608;9.958;2023-04-28T12:01:43;5.80;;;4.18;;
13855;SDS011;6998;53.608;9.958;2023-04-28T12:04:12;7.25;;;5.00;;
13855;SDS011;6998;53.608;9.958;2023-04-28T12:06:39;7.25;;;4.60;;
13855;SDS011;6998;53.608;9.958;2023-04-28T12:09:17;5.30;;;4.15;;
13855;SDS011;6998;53.608;9.958;2023-04-28T12:11:51;5.90;;;4.07;;
13855;SDS011;6998;53.608;9.958;2023-04-28T12:14:19;5.43;;;4.22;;
13855;SDS011;6998;53.608;9.958;2023-04-28T12:16:46;8.13;;;4.38;;
13855;SDS011;6998;53.608;9.958;2023-04-28T12:19:14;6.72;;;4.35;;
13855;SDS011;6998;53.608;9.958;2023-04-28T12:21:42;8.63;;;4.40;;
13855;SDS011;6998;53.608;9.958;2023-04-28T12:24:12;5.03;;;4.47;;
13855;SDS011;6998;53.608;9.958;2023-04-28T12:26:44;7.18;;;4.70;;
13855;SDS011;6998;53.608;9.958;2023-04-28T12:32:00;8.57;;;4.30;;
13855;SDS011;6998;53.608;9.958;2023-04-28T12:34:27;6.13;;;4.13;;
13855;SDS011;6998;53.608;9.958;2023-04-28T12:36:55;6.47;;;4.63;;
13855;SDS011;6998;53.608;9.958;2023-04-28T12:39:23;6.43;;;4.80;;
13855;SDS011;6998;53.608;9.958;2023-04-28T12:41:51;9.77;;;4.85;;
13855;SDS011;6998;53.608;9.958;2023-04-28T12:44:18;7.80;;;4.57;;
13855;SDS011;6998;53.608;9.958;2023-04-28T12:46:44;6.28;;;4.75;;
13855;SDS011;6998;53.608;9.958;2023-04-28T12:49:11;7.00;;;4.75;;
13855;SDS011;6998;53.608;9.958;2023-04-28T12:51:39;6.78;;;4.90;;
13855;SDS011;6998;53.608;9.958;2023-04-28T12:54:06;6.07;;;4.90;;
13855;SDS011;6998;53.608;9.958;2023-04-28T12:56:34;5.88;;;4.88;;
13855;SDS011;6998;53.608;9.958;2023-04-28T12:59:01;7.15;;;5.10;;
13855;SDS011;6998;53.608;9.958;2023-04-28T13:01:28;7.97;;;4.63;;
13855;SDS011;6998;53.608;9.958;2023-04-28T13:03:54;8.27;;;4.55;;
13855;SDS011;6998;53.608;9.958;2023-04-28T13:06:21;6.97;;;5.05;;
13855;SDS011;6998;53.608;9.958;2023-04-28T13:08:48;7.75;;;4.78;;
13855;SDS011;6998;53.608;9.958;2023-04-28T13:11:15;10.10;;;4.97;;
13855;SDS011;6998;53.608;9.958;2023-04-28T13:13:43;6.43;;;4.60;;
13855;SDS011;6998;53.608;9.958;2023-04-28T13:16:10;9.65;;;4.80;;
13855;SDS011;6998;53.608;9.958;2023-04-28T13:18:38;8.85;;;5.70;;
13855;SDS011;6998;53.608;9.958;2023-04-28T13:21:05;6.95;;;4.95;;
13855;SDS011;6998;53.608;9.958;2023-04-28T13:23:31;7.88;;;4.45;;
13855;SDS011;6998;53.608;9.958;2023-04-28T13:25:58;7.70;;;5.13;;
13855;SDS011;6998;53.608;9.958;2023-04-28T13:28:25;10.70;;;5.47;;
13855;SDS011;6998;53.608;9.958;2023-04-28T13:30:54;9.10;;;5.00;;
13855;SDS011;6998;53.608;9.958;2023-04-28T13:33:21;8.40;;;4.93;;
13855;SDS011;6998;53.608;9.958;2023-04-28T13:35:54;5.55;;;4.78;;
13855;SDS011;6998;53.608;9.958;2023-04-28T13:38:22;9.82;;;5.25;;
13855;SDS011;6998;53.608;9.958;2023-04-28T13:40:49;7.95;;;5.05;;
13855;SDS011;6998;53.608;9.958;2023-04-28T13:43:16;8.60;;;5.13;;
13855;SDS011;6998;53.608;9.958;2023-04-28T13:45:43;9.82;;;5.10;;
13855;SDS011;6998;53.608;9.958;2023-04-28T13:48:11;10.23;;;5.63;;
13855;SDS011;6998;53.608;9.958;2023-04-28T13:50:38;10.50;;;5.60;;
13855;SDS011;6998;53.608;9.958;2023-04-28T13:53:05;6.32;;;5.30;;
13855;SDS011;6998;53.608;9.958;2023-04-28T13:55:32;5.45;;;4.90;;
13855;SDS011;6998;53.608;9.958;2023-04-28T13:57:59;9.13;;;5.22;;
13855;SDS011;6998;53.608;9.958;2023-04-28T14:00:28;6.47;;;5.28;;
13855;SDS011;6998;53.608;9.958;2023-04-28T14:02:56;9.98;;;5.75;;
13855;SDS011;6998;53.608;9.958;2023-04-28T14:05:24;8.00;;;5.65;;
13855;SDS011;6998;53.608;9.958;2023-04-28T14:07:52;7.38;;;5.20;;
13855;SDS011;6998;53.608;9.958;2023-04-28T14:10:19;5.97;;;4.85;;
13855;SDS011;6998;53.608;9.958;2023-04-28T14:12:46;8.20;;;5.35;;
13855;SDS011;6998;53.608;9.958;2023-04-28T14:15:13;7.35;;;5.65;;
13855;SDS011;6998;53.608;9.958;2023-04-28T14:17:40;7.68;;;5.22;;
13855;SDS011;6998;53.608;9.958;2023-04-28T14:20:07;7.25;;;5.50;;
13855;SDS011;6998;53.608;9.958;2023-04-28T14:22:36;8.63;;;5.95;;
13855;SDS011;6998;53.608;9.958;2023-04-28T14:25:04;9.52;;;5.68;;
13855;SDS011;6998;53.608;9.958;2023-04-28T14:27:31;9.02;;;5.70;;
13855;SDS011;6998;53.608;9.958;2023-04-28T14:29:58;9.68;;;6.03;;
13855;SDS011;6998;53.608;9.958;2023-04-28T14:32:25;8.75;;;5.25;;
13855;SDS011;6998;53.608;9.958;2023-04-28T14:34:52;9.82;;;6.15;;
13855;SDS011;6998;53.608;9.958;2023-04-28T14:37:19;8.05;;;6.47;;
13855;SDS011;6998;53.608;9.958;2023-04-28T14:39:47;7.43;;;5.90;;
13855;SDS011;6998;53.608;9.958;2023-04-28T14:42:14;10.80;;;6.65;;
13855;SDS011;6998;53.608;9.958;2023-04-28T14:44:41;8.15;;;6.07;;
13855;SDS011;6998;53.608;9.958;2023-04-28T14:47:09;12.70;;;6.80;;
13855;SDS011;6998;53.608;9.958;2023-04-28T14:49:36;11.45;;;6.93;;
13855;SDS011;6998;53.608;9.958;2023-04-28T14:52:04;8.98;;;6.85;;
13855;SDS011;6998;53.608;9.958;2023-04-28T14:54:31;12.77;;;7.57;;
13855;SDS011;6998;53.608;9.958;2023-04-28T14:56:59;11.77;;;7.30;;
13855;SDS011;6998;53.608;9.958;2023-04-28T14:59:26;9.15;;;7.07;;
13855;SDS011;6998;53.608;9.958;2023-04-28T15:01:53;9.07;;;6.50;;
13855;SDS011;6998;53.608;9.958;2023-04-28T15:04:20;8.18;;;6.82;;
13855;SDS011;6998;53.608;9.958;2023-04-28T15:06:52;8.85;;;6.38;;
13855;SDS011;6998;53.608;9.958;2023-04-28T15:09:19;9.07;;;6.93;;
13855;SDS011;6998;53.608;9.958;2023-04-28T15:11:46;8.70;;;7.25;;
13855;SDS011;6998;53.608;9.958;2023-04-28T15:14:14;8.73;;;7.72;;
13855;SDS011;6998;53.608;9.958;2023-04-28T15:16:41;9.98;;;7.70;;
13855;SDS011;6998;53.608;9.958;2023-04-28T15:19:08;10.77;;;7.95;;